sensor_id;sensor_type;location;lat;lon;timestamp;temperature;humidity
18898;DHT22;9581;49.484;8.556;2023-06-14T00:00:22;20.50;60.60
18898;DHT22;9581;49.484;8.556;2023-06-14T00:02:49;20.10;61.90
18898;DHT22;9581;49.484;8.556;2023-06-14T00:05:16;20.10;63.90
18898;DHT22;9581;49.484;8.556;2023-06-14T00:07:43;20.00;62.60
18898;DHT22;9581;49.484;8.556;2023-06-14T00:10:11;19.90;63.80
18898;DHT22;9581;49.484;8.556;2023-06-14T00:12:38;19.80;63.00
18898;DHT22;9581;49.484;8.556;2023-06-14T00:15:06;20.00;63.50
18898;DHT22;9581;49.484;8.556;2023-06-14T00:17:36;19.90;62.80
18898;DHT22;9581;49.484;8.556;2023-06-14T00:20:05;19.90;63.10
18898;DHT22;9581;49.484;8.556;2023-06-14T00:22:33;19.80;63.70
18898;DHT22;9581;49.484;8.556;2023-06-14T00:25:02;19.90;63.60
18898;DHT22;9581;49.484;8.556;2023-06-14T00:27:29;19.90;62.80
18898;DHT22;9581;49.484;8.556;2023-06-14T00:29:56;19.90;63.60
18898;DHT22;9581;49.484;8.556;2023-06-14T00:32:23;19.80;63.90
18898;DHT22;9581;49.484;8.556;2023-06-14T00:34:52;19.60;64.40
18898;DHT22;9581;49.484;8.556;2023-06-14T00:37:19;19.70;65.10
18898;DHT22;9581;49.484;8.556;2023-06-14T00:39:46;19.80;65.20
18898;DHT22;9581;49.484;8.556;2023-06-14T00:42:23;19.80;65.50
18898;DHT22;9581;49.484;8.556;2023-06-14T00:44:50;19.60;64.60
18898;DHT22;9581;49.484;8.556;2023-06-14T00:47:17;19.90;65.50
18898;DHT22;9581;49.484;8.556;2023-06-14T00:49:45;19.60;64.60
18898;DHT22;9581;49.484;8.556;2023-06-14T00:52:14;19.60;65.70
18898;DHT22;9581;49.484;8.556;2023-06-14T00:54:42;19.70;65.50
18898;DHT22;9581;49.484;8.556;2023-06-14T00:57:10;19.40;65.50
18898;DHT22;9581;49.484;8.556;2023-06-14T00:59:42;19.70;63.90
18898;DHT22;9581;49.484;8.556;2023-06-14T01:02:09;19.70;63.70
18898;DHT22;9581;49.484;8.556;2023-06-14T01:04:37;19.80;64.70
18898;DHT22;9581;49.484;8.556;2023-06-14T01:07:10;19.70;64.20
18898;DHT22;9581;49.484;8.556;2023-06-14T01:09:58;19.70;62.70
18898;DHT22;9581;49.484;8.556;2023-06-14T01:12:39;19.80;63.90
18898;DHT22;9581;49.484;8.556;2023-06-14T01:15:09;19.70;63.80
18898;DHT22;9581;49.484;8.556;2023-06-14T01:17:37;19.70;63.60
18898;DHT22;9581;49.484;8.556;2023-06-14T01:20:10;19.60;63.40
18898;DHT22;9581;49.484;8.556;2023-06-14T01:22:50;19.70;63.20
18898;DHT22;9581;49.484;8.556;2023-06-14T01:25:18;19.50;62.90
18898;DHT22;9581;49.484;8.556;2023-06-14T01:27:47;19.50;63.60
18898;DHT22;9581;49.484;8.556;2023-06-14T01:30:16;19.70;63.30
18898;DHT22;9581;49.484;8.556;2023-06-14T01:32:44;19.50;63.40
18898;DHT22;9581;49.484;8.556;2023-06-14T01:35:12;19.70;63.40
18898;DHT22;9581;49.484;8.556;2023-06-14T01:37:39;19.20;63.10
18898;DHT22;9581;49.484;8.556;2023-06-14T01:40:10;19.10;64.80
18898;DHT22;9581;49.484;8.556;2023-06-14T01:42:37;19.00;65.50
18898;DHT22;9581;49.484;8.556;2023-06-14T01:45:06;19.00;64.70
18898;DHT22;9581;49.484;8.556;2023-06-14T01:47:33;19.30;66.00
18898;DHT22;9581;49.484;8.556;2023-06-14T01:50:01;19.20;65.50
18898;DHT22;9581;49.484;8.556;2023-06-14T01:52:28;19.30;64.70
18898;DHT22;9581;49.484;8.556;2023-06-14T01:54:55;19.30;65.30
18898;DHT22;9581;49.484;8.556;2023-06-14T01:57:25;19.30;65.40
18898;DHT22;9581;49.484;8.556;2023-06-14T01:59:52;19.00;64.70
18898;DHT22;9581;49.484;8.556;2023-06-14T02:02:18;19.20;64.90
18898;DHT22;9581;49.484;8.556;2023-06-14T02:04:45;19.20;65.90
18898;DHT22;9581;49.484;8.556;2023-06-14T02:07:13;19.20;65.60
18898;DHT22;9581;49.484;8.556;2023-06-14T02:09:40;19.10;65.40
18898;DHT22;9581;49.484;8.556;2023-06-14T02:12:07;19.10;67.20
18898;DHT22;9581;49.484;8.556;2023-06-14T02:14:36;19.10;66.00
18898;DHT22;9581;49.484;8.556;2023-06-14T02:17:04;19.20;65.10
18898;DHT22;9581;49.484;8.556;2023-06-14T02:19:31;19.10;64.60
18898;DHT22;9581;49.484;8.556;2023-06-14T02:21:58;18.90;65.90
18898;DHT22;9581;49.484;8.556;2023-06-14T02:24:25;19.00;66.20
18898;DHT22;9581;49.484;8.556;2023-06-14T02:26:52;19.00;65.20
18898;DHT22;9581;49.484;8.556;2023-06-14T02:29:19;18.90;65.80
18898;DHT22;9581;49.484;8.556;2023-06-14T02:31:47;19.20;65.20
18898;DHT22;9581;49.484;8.556;2023-06-14T02:34:15;19.10;65.40
18898;DHT22;9581;49.484;8.556;2023-06-14T02:36:43;18.90;66.30
18898;DHT22;9581;49.484;8.556;2023-06-14T02:39:10;19.10;66.00
18898;DHT22;9581;49.484;8.556;2023-06-14T02:41:37;19.00;66.10
18898;DHT22;9581;49.484;8.556;2023-06-14T02:44:05;19.10;64.50
18898;DHT22;9581;49.484;8.556;2023-06-14T02:46:32;19.20;64.30
18898;DHT22;9581;49.484;8.556;2023-06-14T02:49:00;19.40;63.80
18898;DHT22;9581;49.484;8.556;2023-06-14T02:51:27;19.30;64.30
18898;DHT22;9581;49.484;8.556;2023-06-14T02:53:54;19.30;63.90
18898;DHT22;9581;49.484;8.556;2023-06-14T02:56:21;19.40;64.00
18898;DHT22;9581;49.484;8.556;2023-06-14T02:58:48;19.50;63.40
18898;DHT22;9581;49.484;8.556;2023-06-14T03:01:16;18.90;62.80
18898;DHT22;9581;49.484;8.556;2023-06-14T03:03:43;18.40;64.40
18898;DHT22;9581;49.484;8.556;2023-06-14T03:06:11;18.40;66.50
18898;DHT22;9581;49.484;8.556;2023-06-14T03:08:39;18.10;65.50
18898;DHT22;9581;49.484;8.556;2023-06-14T03:11:07;17.60;67.00
18898;DHT22;9581;49.484;8.556;2023-06-14T03:13:34;17.80;67.40
18898;DHT22;9581;49.484;8.556;2023-06-14T03:16:01;18.30;67.50
18898;DHT22;9581;49.484;8.556;2023-06-14T03:18:29;18.60;67.00
18898;DHT22;9581;49.484;8.556;2023-06-14T03:20:56;18.50;66.00
18898;DHT22;9581;49.484;8.556;2023-06-14T03:23:25;18.40;66.70
18898;DHT22;9581;49.484;8.556;2023-06-14T03:25:52;18.20;67.10
18898;DHT22;9581;49.484;8.556;2023-06-14T03:28:19;18.30;67.20
18898;DHT22;9581;49.484;8.556;2023-06-14T03:30:46;18.70;66.90
18898;DHT22;9581;49.484;8.556;2023-06-14T03:33:13;18.90;66.80
18898;DHT22;9581;49.484;8.556;2023-06-14T03:35:41;19.10;66.30
18898;DHT22;9581;49.484;8.556;2023-06-14T03:38:07;19.10;66.00
18898;DHT22;9581;49.484;8.556;2023-06-14T03:40:35;19.20;66.10
18898;DHT22;9581;49.484;8.556;2023-06-14T03:43:02;19.30;65.70
18898;DHT22;9581;49.484;8.556;2023-06-14T03:45:29;19.10;66.50
18898;DHT22;9581;49.484;8.556;2023-06-14T03:47:56;19.20;66.20
18898;DHT22;9581;49.484;8.556;2023-06-14T03:50:23;18.50;67.20
18898;DHT22;9581;49.484;8.556;2023-06-14T03:52:50;18.70;67.90
18898;DHT22;9581;49.484;8.556;2023-06-14T03:55:18;18.70;67.30
18898;DHT22;9581;49.484;8.556;2023-06-14T03:57:46;18.90;67.30
18898;DHT22;9581;49.484;8.556;2023-06-14T04:00:13;19.00;67.30
18898;DHT22;9581;49.484;8.556;2023-06-14T04:02:40;18.90;67.20
18898;DHT22;9581;49.484;8.556;2023-06-14T04:05:07;18.90;67.40
18898;DHT22;9581;49.484;8.556;2023-06-14T04:07:34;18.80;67.20
18898;DHT22;9581;49.484;8.556;2023-06-14T04:10:06;18.90;66.80
18898;DHT22;9581;49.484;8.556;2023-06-14T04:12:33;19.10;67.20
18898;DHT22;9581;49.484;8.556;2023-06-14T04:15:01;19.10;67.30
18898;DHT22;9581;49.484;8.556;2023-06-14T04:17:29;19.10;67.50
18898;DHT22;9581;49.484;8.556;2023-06-14T04:19:58;19.00;66.90
18898;DHT22;9581;49.484;8.556;2023-06-14T04:22:25;19.00;67.00
18898;DHT22;9581;49.484;8.556;2023-06-14T04:24:54;18.90;67.30
18898;DHT22;9581;49.484;8.556;2023-06-14T04:27:21;18.90;68.10
18898;DHT22;9581;49.484;8.556;2023-06-14T04:29:50;19.00;68.20
18898;DHT22;9581;49.484;8.556;2023-06-14T04:32:23;19.00;67.90
18898;DHT22;9581;49.484;8.556;2023-06-14T04:34:51;19.10;68.10
18898;DHT22;9581;49.484;8.556;2023-06-14T04:37:19;19.10;67.60
18898;DHT22;9581;49.484;8.556;2023-06-14T04:39:47;19.10;67.90
18898;DHT22;9581;49.484;8.556;2023-06-14T04:42:14;18.90;68.00
18898;DHT22;9581;49.484;8.556;2023-06-14T04:44:41;19.00;69.90
18898;DHT22;9581;49.484;8.556;2023-06-14T04:47:08;19.10;70.00
18898;DHT22;9581;49.484;8.556;2023-06-14T04:49:38;19.00;69.70
18898;DHT22;9581;49.484;8.556;2023-06-14T04:52:06;19.00;70.50
18898;DHT22;9581;49.484;8.556;2023-06-14T04:54:35;19.10;69.40
18898;DHT22;9581;49.484;8.556;2023-06-14T04:57:04;19.10;68.90
18898;DHT22;9581;49.484;8.556;2023-06-14T04:59:31;19.30;69.70
18898;DHT22;9581;49.484;8.556;2023-06-14T05:01:59;19.30;68.70
18898;DHT22;9581;49.484;8.556;2023-06-14T05:04:26;19.30;69.40
18898;DHT22;9581;49.484;8.556;2023-06-14T05:06:54;19.40;68.70
18898;DHT22;9581;49.484;8.556;2023-06-14T05:09:22;19.30;68.40
18898;DHT22;9581;49.484;8.556;2023-06-14T05:11:49;19.20;68.70
18898;DHT22;9581;49.484;8.556;2023-06-14T05:14:16;19.30;68.80
18898;DHT22;9581;49.484;8.556;2023-06-14T05:16:43;19.30;68.50
18898;DHT22;9581;49.484;8.556;2023-06-14T05:19:10;19.40;68.70
18898;DHT22;9581;49.484;8.556;2023-06-14T05:21:37;19.50;68.50
18898;DHT22;9581;49.484;8.556;2023-06-14T05:24:06;19.50;68.50
18898;DHT22;9581;49.484;8.556;2023-06-14T05:26:34;19.60;68.50
18898;DHT22;9581;49.484;8.556;2023-06-14T05:29:01;19.60;68.60
18898;DHT22;9581;49.484;8.556;2023-06-14T05:31:28;19.60;68.20
18898;DHT22;9581;49.484;8.556;2023-06-14T05:33:55;19.70;68.90
18898;DHT22;9581;49.484;8.556;2023-06-14T05:36:22;19.70;69.50
18898;DHT22;9581;49.484;8.556;2023-06-14T05:38:49;19.80;69.50
18898;DHT22;9581;49.484;8.556;2023-06-14T05:41:17;19.80;69.40
18898;DHT22;9581;49.484;8.556;2023-06-14T05:43:46;19.90;68.80
18898;DHT22;9581;49.484;8.556;2023-06-14T05:46:13;19.80;68.80
18898;DHT22;9581;49.484;8.556;2023-06-14T05:48:40;19.90;68.40
18898;DHT22;9581;49.484;8.556;2023-06-14T05:51:07;19.90;68.10
18898;DHT22;9581;49.484;8.556;2023-06-14T05:53:34;20.00;68.00
18898;DHT22;9581;49.484;8.556;2023-06-14T05:56:01;20.00;67.80
18898;DHT22;9581;49.484;8.556;2023-06-14T05:58:29;20.00;67.60
18898;DHT22;9581;49.484;8.556;2023-06-14T06:00:56;20.00;67.30
18898;DHT22;9581;49.484;8.556;2023-06-14T06:03:23;20.00;67.10
18898;DHT22;9581;49.484;8.556;2023-06-14T06:05:50;20.10;68.10
18898;DHT22;9581;49.484;8.556;2023-06-14T06:08:16;20.10;67.80
18898;DHT22;9581;49.484;8.556;2023-06-14T06:10:44;20.00;67.70
18898;DHT22;9581;49.484;8.556;2023-06-14T06:13:10;20.20;68.50
18898;DHT22;9581;49.484;8.556;2023-06-14T06:15:38;20.10;68.30
18898;DHT22;9581;49.484;8.556;2023-06-14T06:18:05;20.20;67.80
18898;DHT22;9581;49.484;8.556;2023-06-14T06:20:33;20.30;67.50
18898;DHT22;9581;49.484;8.556;2023-06-14T06:23:00;20.40;67.80
18898;DHT22;9581;49.484;8.556;2023-06-14T06:25:27;20.60;68.20
18898;DHT22;9581;49.484;8.556;2023-06-14T06:27:55;20.60;67.70
18898;DHT22;9581;49.484;8.556;2023-06-14T06:30:22;20.60;67.00
18898;DHT22;9581;49.484;8.556;2023-06-14T06:32:50;20.70;66.70
18898;DHT22;9581;49.484;8.556;2023-06-14T06:35:18;20.70;67.00
18898;DHT22;9581;49.484;8.556;2023-06-14T06:37:45;20.70;67.50
18898;DHT22;9581;49.484;8.556;2023-06-14T06:40:12;20.80;67.70
18898;DHT22;9581;49.484;8.556;2023-06-14T06:42:39;20.90;68.30
18898;DHT22;9581;49.484;8.556;2023-06-14T06:45:06;21.00;66.80
18898;DHT22;9581;49.484;8.556;2023-06-14T06:47:33;21.10;67.20
18898;DHT22;9581;49.484;8.556;2023-06-14T06:50:02;21.10;67.00
18898;DHT22;9581;49.484;8.556;2023-06-14T06:52:29;21.10;66.80
18898;DHT22;9581;49.484;8.556;2023-06-14T06:54:55;21.20;66.50
18898;DHT22;9581;49.484;8.556;2023-06-14T06:57:22;21.30;65.90
18898;DHT22;9581;49.484;8.556;2023-06-14T06:59:49;21.30;65.60
18898;DHT22;9581;49.484;8.556;2023-06-14T07:02:16;21.40;65.40
18898;DHT22;9581;49.484;8.556;2023-06-14T07:04:43;21.50;65.50
18898;DHT22;9581;49.484;8.556;2023-06-14T07:07:11;21.40;64.00
18898;DHT22;9581;49.484;8.556;2023-06-14T07:09:38;21.60;65.50
18898;DHT22;9581;49.484;8.556;2023-06-14T07:12:06;21.70;65.40
18898;DHT22;9581;49.484;8.556;2023-06-14T07:14:33;21.90;64.90
18898;DHT22;9581;49.484;8.556;2023-06-14T07:17:00;22.00;64.10
18898;DHT22;9581;49.484;8.556;2023-06-14T07:19:27;22.20;63.40
18898;DHT22;9581;49.484;8.556;2023-06-14T07:21:53;22.30;63.30
18898;DHT22;9581;49.484;8.556;2023-06-14T07:24:22;22.30;62.90
18898;DHT22;9581;49.484;8.556;2023-06-14T07:26:49;22.40;63.00
18898;DHT22;9581;49.484;8.556;2023-06-14T07:29:16;22.60;63.00
18898;DHT22;9581;49.484;8.556;2023-06-14T07:31:43;22.70;62.40
18898;DHT22;9581;49.484;8.556;2023-06-14T07:34:09;23.00;63.70
18898;DHT22;9581;49.484;8.556;2023-06-14T07:36:36;23.20;61.80
18898;DHT22;9581;49.484;8.556;2023-06-14T07:39:04;23.30;61.50
18898;DHT22;9581;49.484;8.556;2023-06-14T07:41:33;23.30;61.30
18898;DHT22;9581;49.484;8.556;2023-06-14T07:44:00;23.50;62.10
18898;DHT22;9581;49.484;8.556;2023-06-14T07:46:28;23.60;60.70
18898;DHT22;9581;49.484;8.556;2023-06-14T07:48:55;23.80;61.80
18898;DHT22;9581;49.484;8.556;2023-06-14T07:51:22;24.10;60.70
18898;DHT22;9581;49.484;8.556;2023-06-14T07:53:49;24.30;59.90
18898;DHT22;9581;49.484;8.556;2023-06-14T07:56:16;24.50;58.70
18898;DHT22;9581;49.484;8.556;2023-06-14T07:58:44;24.90;59.00
18898;DHT22;9581;49.484;8.556;2023-06-14T08:01:11;25.20;58.20
18898;DHT22;9581;49.484;8.556;2023-06-14T08:03:39;25.30;58.70
18898;DHT22;9581;49.484;8.556;2023-06-14T08:06:06;25.40;58.80
18898;DHT22;9581;49.484;8.556;2023-06-14T08:08:33;25.30;57.80
18898;DHT22;9581;49.484;8.556;2023-06-14T08:11:01;25.00;58.30
18898;DHT22;9581;49.484;8.556;2023-06-14T08:13:27;24.90;58.40
18898;DHT22;9581;49.484;8.556;2023-06-14T08:15:56;25.00;59.10
18898;DHT22;9581;49.484;8.556;2023-06-14T08:18:23;25.00;59.00
18898;DHT22;9581;49.484;8.556;2023-06-14T08:20:50;24.80;59.70
18898;DHT22;9581;49.484;8.556;2023-06-14T08:23:17;24.80;57.60
18898;DHT22;9581;49.484;8.556;2023-06-14T08:25:46;24.80;58.50
18898;DHT22;9581;49.484;8.556;2023-06-14T08:28:13;24.50;57.70
18898;DHT22;9581;49.484;8.556;2023-06-14T08:30:42;24.50;58.40
18898;DHT22;9581;49.484;8.556;2023-06-14T08:33:10;24.60;58.40
18898;DHT22;9581;49.484;8.556;2023-06-14T08:35:37;24.70;59.00
18898;DHT22;9581;49.484;8.556;2023-06-14T08:38:05;24.80;59.50
18898;DHT22;9581;49.484;8.556;2023-06-14T08:40:37;25.00;59.90
18898;DHT22;9581;49.484;8.556;2023-06-14T08:43:04;25.00;58.70
18898;DHT22;9581;49.484;8.556;2023-06-14T08:45:32;24.90;57.60
18898;DHT22;9581;49.484;8.556;2023-06-14T08:47:59;24.80;57.80
18898;DHT22;9581;49.484;8.556;2023-06-14T08:50:28;24.80;58.00
18898;DHT22;9581;49.484;8.556;2023-06-14T08:52:58;24.80;58.60
18898;DHT22;9581;49.484;8.556;2023-06-14T08:55:27;25.10;59.00
18898;DHT22;9581;49.484;8.556;2023-06-14T08:57:56;25.10;58.50
18898;DHT22;9581;49.484;8.556;2023-06-14T09:00:24;25.00;57.10
18898;DHT22;9581;49.484;8.556;2023-06-14T09:02:52;25.00;58.10
18898;DHT22;9581;49.484;8.556;2023-06-14T09:05:24;25.00;56.10
18898;DHT22;9581;49.484;8.556;2023-06-14T09:07:53;25.10;56.80
18898;DHT22;9581;49.484;8.556;2023-06-14T09:10:22;25.00;57.10
18898;DHT22;9581;49.484;8.556;2023-06-14T09:12:51;25.30;57.30
18898;DHT22;9581;49.484;8.556;2023-06-14T09:15:18;25.40;57.50
18898;DHT22;9581;49.484;8.556;2023-06-14T09:17:46;25.50;57.20
18898;DHT22;9581;49.484;8.556;2023-06-14T09:20:12;25.40;57.30
18898;DHT22;9581;49.484;8.556;2023-06-14T09:22:43;25.60;57.00
18898;DHT22;9581;49.484;8.556;2023-06-14T09:25:12;25.50;55.50
18898;DHT22;9581;49.484;8.556;2023-06-14T09:27:41;25.60;56.70
18898;DHT22;9581;49.484;8.556;2023-06-14T09:30:09;25.60;56.80
18898;DHT22;9581;49.484;8.556;2023-06-14T09:32:37;25.70;56.50
18898;DHT22;9581;49.484;8.556;2023-06-14T09:35:05;25.70;56.70
18898;DHT22;9581;49.484;8.556;2023-06-14T09:37:33;25.70;55.10
18898;DHT22;9581;49.484;8.556;2023-06-14T09:40:00;25.80;56.40
18898;DHT22;9581;49.484;8.556;2023-06-14T09:42:28;25.80;56.20
18898;DHT22;9581;49.484;8.556;2023-06-14T09:44:56;25.90;56.20
18898;DHT22;9581;49.484;8.556;2023-06-14T09:47:24;26.00;56.60
18898;DHT22;9581;49.484;8.556;2023-06-14T09:49:51;26.00;56.60
18898;DHT22;9581;49.484;8.556;2023-06-14T09:52:20;26.10;56.20
18898;DHT22;9581;49.484;8.556;2023-06-14T09:54:48;26.20;56.30
18898;DHT22;9581;49.484;8.556;2023-06-14T09:57:16;26.10;55.60
18898;DHT22;9581;49.484;8.556;2023-06-14T09:59:45;26.20;55.60
18898;DHT22;9581;49.484;8.556;2023-06-14T10:02:21;26.30;56.10
18898;DHT22;9581;49.484;8.556;2023-06-14T10:04:53;26.20;54.50
18898;DHT22;9581;49.484;8.556;2023-06-14T10:07:25;26.20;54.90
18898;DHT22;9581;49.484;8.556;2023-06-14T10:09:53;26.20;55.30
18898;DHT22;9581;49.484;8.556;2023-06-14T10:12:20;26.10;54.80
18898;DHT22;9581;49.484;8.556;2023-06-14T10:14:50;26.10;55.60
18898;DHT22;9581;49.484;8.556;2023-06-14T10:17:33;26.10;55.70
18898;DHT22;9581;49.484;8.556;2023-06-14T10:20:14;26.30;55.90
18898;DHT22;9581;49.484;8.556;2023-06-14T10:22:49;26.40;55.00
18898;DHT22;9581;49.484;8.556;2023-06-14T10:25:27;26.60;54.60
18898;DHT22;9581;49.484;8.556;2023-06-14T10:28:03;26.70;55.70
18898;DHT22;9581;49.484;8.556;2023-06-14T10:30:32;26.70;55.20
18898;DHT22;9581;49.484;8.556;2023-06-14T10:33:06;26.80;54.90
18898;DHT22;9581;49.484;8.556;2023-06-14T10:35:33;27.00;55.20
18898;DHT22;9581;49.484;8.556;2023-06-14T10:38:10;26.80;53.70
18898;DHT22;9581;49.484;8.556;2023-06-14T10:40:39;26.70;54.80
18898;DHT22;9581;49.484;8.556;2023-06-14T10:43:21;27.00;53.50
18898;DHT22;9581;49.484;8.556;2023-06-14T10:46:15;27.00;53.60
18898;DHT22;9581;49.484;8.556;2023-06-14T10:48:43;27.00;54.20
18898;DHT22;9581;49.484;8.556;2023-06-14T10:51:17;27.10;54.40
18898;DHT22;9581;49.484;8.556;2023-06-14T10:53:46;26.90;54.30
18898;DHT22;9581;49.484;8.556;2023-06-14T10:56:24;27.10;53.90
18898;DHT22;9581;49.484;8.556;2023-06-14T10:58:53;27.20;54.50
18898;DHT22;9581;49.484;8.556;2023-06-14T11:01:38;27.20;53.70
18898;DHT22;9581;49.484;8.556;2023-06-14T11:04:08;27.30;54.10
18898;DHT22;9581;49.484;8.556;2023-06-14T11:06:45;27.30;54.60
18898;DHT22;9581;49.484;8.556;2023-06-14T11:09:39;27.40;53.70
18898;DHT22;9581;49.484;8.556;2023-06-14T11:12:10;27.30;52.70
18898;DHT22;9581;49.484;8.556;2023-06-14T11:14:38;27.40;53.40
18898;DHT22;9581;49.484;8.556;2023-06-14T11:17:06;27.40;53.10
18898;DHT22;9581;49.484;8.556;2023-06-14T11:19:33;27.50;53.40
18898;DHT22;9581;49.484;8.556;2023-06-14T11:22:00;27.30;53.30
18898;DHT22;9581;49.484;8.556;2023-06-14T11:24:27;26.90;52.80
18898;DHT22;9581;49.484;8.556;2023-06-14T11:26:55;26.90;53.50
18898;DHT22;9581;49.484;8.556;2023-06-14T11:29:22;26.80;53.40
18898;DHT22;9581;49.484;8.556;2023-06-14T11:31:50;27.10;52.70
18898;DHT22;9581;49.484;8.556;2023-06-14T11:34:18;27.30;52.70
18898;DHT22;9581;49.484;8.556;2023-06-14T11:36:45;27.50;52.30
18898;DHT22;9581;49.484;8.556;2023-06-14T11:39:13;27.60;53.30
18898;DHT22;9581;49.484;8.556;2023-06-14T11:41:41;27.30;53.50
18898;DHT22;9581;49.484;8.556;2023-06-14T11:44:09;27.60;53.40
18898;DHT22;9581;49.484;8.556;2023-06-14T11:46:36;27.70;53.20
18898;DHT22;9581;49.484;8.556;2023-06-14T11:49:03;27.80;53.40
18898;DHT22;9581;49.484;8.556;2023-06-14T11:51:34;28.00;53.80
18898;DHT22;9581;49.484;8.556;2023-06-14T11:54:01;28.00;53.20
18898;DHT22;9581;49.484;8.556;2023-06-14T11:56:29;28.20;53.60
18898;DHT22;9581;49.484;8.556;2023-06-14T11:58:56;28.30;52.80
18898;DHT22;9581;49.484;8.556;2023-06-14T12:01:23;28.30;53.60
18898;DHT22;9581;49.484;8.556;2023-06-14T12:03:52;28.50;53.10
18898;DHT22;9581;49.484;8.556;2023-06-14T12:06:26;28.30;51.80
18898;DHT22;9581;49.484;8.556;2023-06-14T12:08:57;28.40;52.50
18898;DHT22;9581;49.484;8.556;2023-06-14T12:11:24;28.40;52.70
18898;DHT22;9581;49.484;8.556;2023-06-14T12:13:54;28.70;53.10
18898;DHT22;9581;49.484;8.556;2023-06-14T12:16:30;28.60;52.20
18898;DHT22;9581;49.484;8.556;2023-06-14T12:19:00;28.60;52.20
18898;DHT22;9581;49.484;8.556;2023-06-14T12:21:27;28.30;53.00
18898;DHT22;9581;49.484;8.556;2023-06-14T12:23:54;27.90;52.80
18898;DHT22;9581;49.484;8.556;2023-06-14T12:26:24;27.90;51.50
18898;DHT22;9581;49.484;8.556;2023-06-14T12:28:52;28.10;52.30
18898;DHT22;9581;49.484;8.556;2023-06-14T12:31:19;28.30;52.40
18898;DHT22;9581;49.484;8.556;2023-06-14T12:33:46;28.50;52.00
18898;DHT22;9581;49.484;8.556;2023-06-14T12:36:14;28.40;52.50
18898;DHT22;9581;49.484;8.556;2023-06-14T12:38:42;28.50;51.70
18898;DHT22;9581;49.484;8.556;2023-06-14T12:41:09;28.50;52.00
18898;DHT22;9581;49.484;8.556;2023-06-14T12:43:37;28.50;52.00
18898;DHT22;9581;49.484;8.556;2023-06-14T12:46:04;28.20;52.10
18898;DHT22;9581;49.484;8.556;2023-06-14T12:48:31;28.00;52.10
18898;DHT22;9581;49.484;8.556;2023-06-14T12:50:59;27.80;52.10
18898;DHT22;9581;49.484;8.556;2023-06-14T12:53:26;27.50;52.40
18898;DHT22;9581;49.484;8.556;2023-06-14T12:55:53;27.30;52.20
18898;DHT22;9581;49.484;8.556;2023-06-14T12:58:20;27.50;52.30
18898;DHT22;9581;49.484;8.556;2023-06-14T13:00:48;27.70;52.50
18898;DHT22;9581;49.484;8.556;2023-06-14T13:03:15;28.00;51.50
18898;DHT22;9581;49.484;8.556;2023-06-14T13:05:41;28.30;52.20
18898;DHT22;9581;49.484;8.556;2023-06-14T13:08:08;28.40;51.10
18898;DHT22;9581;49.484;8.556;2023-06-14T13:10:35;28.20;48.70
18898;DHT22;9581;49.484;8.556;2023-06-14T13:13:02;28.20;51.40
18898;DHT22;9581;49.484;8.556;2023-06-14T13:15:29;28.50;51.00
18898;DHT22;9581;49.484;8.556;2023-06-14T13:17:57;28.70;51.20
18898;DHT22;9581;49.484;8.556;2023-06-14T13:20:24;28.70;51.80
18898;DHT22;9581;49.484;8.556;2023-06-14T13:22:51;28.20;51.40
18898;DHT22;9581;49.484;8.556;2023-06-14T13:25:18;28.10;51.70
18898;DHT22;9581;49.484;8.556;2023-06-14T13:27:45;28.00;52.50
18898;DHT22;9581;49.484;8.556;2023-06-14T13:30:12;27.60;51.50
18898;DHT22;9581;49.484;8.556;2023-06-14T13:32:39;27.40;52.20
18898;DHT22;9581;49.484;8.556;2023-06-14T13:35:07;27.20;52.80
18898;DHT22;9581;49.484;8.556;2023-06-14T13:37:34;27.20;53.10
18898;DHT22;9581;49.484;8.556;2023-06-14T13:40:01;27.20;53.50
18898;DHT22;9581;49.484;8.556;2023-06-14T13:42:28;27.40;53.30
18898;DHT22;9581;49.484;8.556;2023-06-14T13:44:57;27.70;51.90
18898;DHT22;9581;49.484;8.556;2023-06-14T13:47:23;27.40;52.50
18898;DHT22;9581;49.484;8.556;2023-06-14T13:49:50;27.20;51.60
18898;DHT22;9581;49.484;8.556;2023-06-14T13:52:18;27.40;52.20
18898;DHT22;9581;49.484;8.556;2023-06-14T13:54:46;27.90;52.80
18898;DHT22;9581;49.484;8.556;2023-06-14T13:57:13;28.00;51.70
18898;DHT22;9581;49.484;8.556;2023-06-14T13:59:40;27.90;52.80
18898;DHT22;9581;49.484;8.556;2023-06-14T14:02:07;27.90;52.80
18898;DHT22;9581;49.484;8.556;2023-06-14T14:04:34;28.00;52.30
18898;DHT22;9581;49.484;8.556;2023-06-14T14:07:01;28.00;51.80
18898;DHT22;9581;49.484;8.556;2023-06-14T14:09:30;27.70;52.60
18898;DHT22;9581;49.484;8.556;2023-06-14T14:11:58;27.60;53.70
18898;DHT22;9581;49.484;8.556;2023-06-14T14:14:25;27.40;52.60
18898;DHT22;9581;49.484;8.556;2023-06-14T14:16:51;27.30;53.10
18898;DHT22;9581;49.484;8.556;2023-06-14T14:19:20;27.30;53.00
18898;DHT22;9581;49.484;8.556;2023-06-14T14:21:47;27.10;53.30
18898;DHT22;9581;49.484;8.556;2023-06-14T14:24:14;27.00;53.70
18898;DHT22;9581;49.484;8.556;2023-06-14T14:26:42;26.80;53.80
18898;DHT22;9581;49.484;8.556;2023-06-14T14:29:11;26.80;53.90
18898;DHT22;9581;49.484;8.556;2023-06-14T14:31:37;27.30;53.00
18898;DHT22;9581;49.484;8.556;2023-06-14T14:34:04;27.60;52.00
18898;DHT22;9581;49.484;8.556;2023-06-14T14:36:31;27.90;50.80
18898;DHT22;9581;49.484;8.556;2023-06-14T14:39:01;28.30;52.20
18898;DHT22;9581;49.484;8.556;2023-06-14T14:41:28;28.90;52.30
18898;DHT22;9581;49.484;8.556;2023-06-14T14:43:56;29.30;51.00
18898;DHT22;9581;49.484;8.556;2023-06-14T14:46:24;29.50;49.00
18898;DHT22;9581;49.484;8.556;2023-06-14T14:48:51;29.60;50.30
18898;DHT22;9581;49.484;8.556;2023-06-14T14:51:18;29.90;49.40
18898;DHT22;9581;49.484;8.556;2023-06-14T14:53:44;30.00;49.10
18898;DHT22;9581;49.484;8.556;2023-06-14T14:56:12;30.40;49.10
18898;DHT22;9581;49.484;8.556;2023-06-14T14:58:38;30.50;48.80
18898;DHT22;9581;49.484;8.556;2023-06-14T15:01:06;30.40;48.10
18898;DHT22;9581;49.484;8.556;2023-06-14T15:03:33;30.30;48.30
18898;DHT22;9581;49.484;8.556;2023-06-14T15:06:00;30.00;48.70
18898;DHT22;9581;49.484;8.556;2023-06-14T15:08:27;30.10;48.90
18898;DHT22;9581;49.484;8.556;2023-06-14T15:10:54;30.50;48.90
18898;DHT22;9581;49.484;8.556;2023-06-14T15:13:21;30.30;48.80
18898;DHT22;9581;49.484;8.556;2023-06-14T15:15:48;30.40;48.90
18898;DHT22;9581;49.484;8.556;2023-06-14T15:18:16;30.00;49.10
18898;DHT22;9581;49.484;8.556;2023-06-14T15:20:46;29.40;49.30
18898;DHT22;9581;49.484;8.556;2023-06-14T15:23:12;29.30;49.10
18898;DHT22;9581;49.484;8.556;2023-06-14T15:25:45;29.20;50.30
18898;DHT22;9581;49.484;8.556;2023-06-14T15:28:12;29.40;49.60
18898;DHT22;9581;49.484;8.556;2023-06-14T15:30:39;29.50;49.60
18898;DHT22;9581;49.484;8.556;2023-06-14T15:33:06;29.60;49.80
18898;DHT22;9581;49.484;8.556;2023-06-14T15:35:34;29.60;50.20
18898;DHT22;9581;49.484;8.556;2023-06-14T15:38:01;29.50;50.80
18898;DHT22;9581;49.484;8.556;2023-06-14T15:40:28;29.50;50.50
18898;DHT22;9581;49.484;8.556;2023-06-14T15:42:55;29.50;49.60
18898;DHT22;9581;49.484;8.556;2023-06-14T15:45:22;29.50;50.50
18898;DHT22;9581;49.484;8.556;2023-06-14T15:47:49;29.40;50.60
18898;DHT22;9581;49.484;8.556;2023-06-14T15:50:15;28.90;50.80